createdAt,value
2023-06-21T00:01:46.433Z,95.75
2023-06-21T00:06:48.468Z,92.74
2023-06-21T00:11:49.980Z,94.09
2023-06-21T00:16:51.383Z,93.47
2023-06-21T00:21:55.449Z,93.60
2023-06-21T00:26:57.174Z,93.45
2023-06-21T00:31:58.773Z,92.88
2023-06-21T00:37:01.661Z,94.10
2023-06-21T00:42:03.296Z,93.92
2023-06-21T00:47:05.702Z,94.81
2023-06-21T00:52:08.678Z,95.65
2023-06-21T00:57:13.451Z,95.32
2023-06-21T01:02:15.442Z,96.33
2023-06-21T01:07:35.692Z,97.92
2023-06-21T01:12:52.595Z,96.15
2023-06-21T01:17:57.995Z,97.28
2023-06-21T01:23:26.926Z,96.73
2023-06-21T01:28:47.401Z,97.95
2023-06-21T01:33:50.192Z,96.96
2023-06-21T01:38:58.312Z,97.53
2023-06-21T01:43:59.931Z,97.85
2023-06-21T01:49:04.419Z,99.29
2023-06-21T01:54:07.048Z,99.05
2023-06-21T01:59:09.604Z,98.50
2023-06-21T02:04:12.380Z,99.90
2023-06-21T02:09:16.471Z,99.75
2023-06-21T02:14:18.148Z,98.09
2023-06-21T02:19:19.747Z,98.13
2023-06-21T02:24:21.663Z,99.01
2023-06-21T02:29:23.315Z,97.78
2023-06-21T02:34:25.808Z,97.31
2023-06-21T02:39:28.668Z,97.78
2023-06-21T02:44:31.102Z,98.92
2023-06-21T02:49:33.054Z,99.37
2023-06-21T02:54:34.752Z,99.38
2023-06-21T02:59:37.397Z,100.00
2023-06-21T03:04:39.194Z,99.96
2023-06-21T03:09:40.658Z,100.00
2023-06-21T03:14:42.602Z,100.00
2023-06-21T03:19:45.218Z,100.00
2023-06-21T03:24:51.382Z,100.00
2023-06-21T03:29:53.018Z,100.00
2023-06-21T03:34:54.674Z,100.00
2023-06-21T03:39:56.525Z,100.00
2023-06-21T03:44:58.060Z,100.00
2023-06-21T03:49:59.604Z,100.00
2023-06-21T04:17:37.592Z,99.10
2023-06-21T04:22:40.727Z,100.00
2023-06-21T04:27:57.672Z,100.00
2023-06-21T04:32:59.774Z,100.00
2023-06-21T04:38:09.737Z,100.00
2023-06-21T04:43:18.205Z,99.64
2023-06-21T04:48:22.556Z,99.75
2023-06-21T04:53:49.261Z,98.88
2023-06-21T04:58:51.549Z,98.90
2023-06-21T05:03:53.155Z,96.35
2023-06-21T05:08:54.847Z,95.17
2023-06-21T05:13:56.642Z,98.09
2023-06-21T05:18:58.432Z,98.06
2023-06-21T05:24:03.186Z,96.27
2023-06-21T05:34:06.315Z,91.29
2023-06-21T05:39:07.910Z,90.75
2023-06-21T05:44:09.864Z,87.34
2023-06-21T05:49:11.562Z,86.26
2023-06-21T05:54:15.348Z,85.23
2023-06-21T05:59:20.162Z,85.40
2023-06-21T06:04:22.011Z,82.89
2023-06-21T06:09:24.474Z,84.85
2023-06-21T06:14:26.601Z,84.48
2023-06-21T06:19:28.120Z,86.89
2023-06-21T06:24:32.407Z,80.01
2023-06-21T06:29:41.688Z,79.16
2023-06-21T06:34:43.486Z,76.41
2023-06-21T06:39:46.581Z,73.34
2023-06-21T06:44:48.396Z,75.26
2023-06-21T06:49:50.020Z,74.59
2023-06-21T06:54:52.419Z,76.84
2023-06-21T06:59:54.088Z,75.71
2023-06-21T07:04:55.563Z,73.89
2023-06-21T07:09:58.855Z,70.17
2023-06-21T07:15:00.611Z,68.49
2023-06-21T07:20:02.394Z,69.42
2023-06-21T07:25:04.620Z,66.27
2023-06-21T07:30:07.252Z,60.54
2023-06-21T07:35:12.013Z,58.65
2023-06-21T07:40:14.591Z,58.75
2023-06-21T07:45:22.598Z,59.99
2023-06-21T07:50:24.188Z,64.10
2023-06-21T07:55:25.894Z,66.82
2023-06-21T08:00:27.807Z,61.69
2023-06-21T08:05:29.840Z,62.35
2023-06-21T08:10:31.670Z,66.43
2023-06-21T08:15:33.217Z,60.83
2023-06-21T08:20:34.997Z,51.98
2023-06-21T08:25:36.934Z,47.50
2023-06-21T08:47:22.813Z,47.14
2023-06-21T08:58:13.935Z,47.27
2023-06-21T09:09:21.611Z,49.16
2023-06-21T09:14:43.399Z,44.27
2023-06-21T09:20:06.972Z,43.75
2023-06-21T09:32:28.317Z,40.78
2023-06-21T09:37:52.549Z,39.82
2023-06-21T10:06:26.522Z,43.41
2023-06-21T10:29:25.436Z,33.33
2023-06-21T10:40:45.192Z,38.65
2023-06-21T11:02:47.348Z,41.81
2023-06-21T12:02:01.364Z,46.29
2023-06-21T12:13:44.443Z,45.86
2023-06-21T12:24:27.817Z,45.78
2023-06-21T12:29:38.661Z,44.70
2023-06-21T12:34:49.281Z,44.91
2023-06-21T13:03:14.928Z,44.43
2023-06-21T13:08:28.376Z,43.31
2023-06-21T13:19:53.136Z,45.01
2023-06-21T13:25:06.426Z,44.02
2023-06-21T14:24:42.996Z,41.71
2023-06-21T14:30:11.322Z,40.43
2023-06-21T14:41:19.778Z,41.30
2023-06-21T14:52:09.103Z,41.93
2023-06-21T15:19:45.723Z,40.89
2023-06-21T15:25:33.089Z,41.44
2023-06-21T15:42:20.444Z,40.23
2023-06-21T15:47:22.293Z,41.02
2023-06-21T15:58:07.453Z,40.15
2023-06-21T16:09:28.118Z,39.79
2023-06-21T16:14:48.872Z,39.45
2023-06-21T16:20:32.134Z,39.43
2023-06-21T16:31:53.825Z,39.84
2023-06-21T16:37:06.680Z,40.91
2023-06-21T16:42:24.478Z,39.48
2023-06-21T16:48:22.899Z,40.78
2023-06-21T17:00:38.731Z,41.17
2023-06-21T17:05:46.170Z,40.55
2023-06-21T17:11:08.901Z,40.14
2023-06-21T17:16:27.047Z,42.54
2023-06-21T17:21:28.729Z,42.12
2023-06-21T17:26:40.940Z,41.80
2023-06-21T17:31:49.785Z,43.27
2023-06-21T17:42:44.170Z,43.29
2023-06-21T17:47:46.414Z,42.85
2023-06-21T17:52:48.170Z,43.88
2023-06-21T17:57:49.922Z,44.55
2023-06-21T18:02:56.867Z,45.32
2023-06-21T18:08:04.386Z,44.25
2023-06-21T18:13:06.228Z,44.75
2023-06-21T18:18:11.216Z,45.03
2023-06-21T18:33:59.797Z,45.99
2023-06-21T18:39:06.077Z,45.41
2023-06-21T18:44:08.199Z,46.56
2023-06-21T18:49:13.247Z,47.15
2023-06-21T18:54:15.006Z,48.25
2023-06-21T18:59:27.960Z,48.01
2023-06-21T19:04:47.551Z,48.47
2023-06-21T19:09:52.162Z,48.81
2023-06-21T19:14:56.291Z,49.31
2023-06-21T19:19:58.757Z,48.36
2023-06-21T19:25:24.841Z,49.48
2023-06-21T19:30:29.549Z,49.32
2023-06-21T19:35:32.956Z,49.10
2023-06-21T19:40:34.880Z,48.95
2023-06-21T19:45:54.477Z,48.56
2023-06-21T19:51:01.193Z,49.57
2023-06-21T19:56:06.151Z,49.88
2023-06-21T20:01:08.240Z,50.82
2023-06-21T20:06:09.891Z,50.07
2023-06-21T20:11:17.445Z,50.58
2023-06-21T20:16:30.909Z,50.91
2023-06-21T20:21:46.306Z,51.32
2023-06-21T20:26:52.260Z,52.87
2023-06-21T20:31:56.208Z,52.65
2023-06-21T20:36:57.816Z,53.06
2023-06-21T20:42:03.050Z,52.63
2023-06-21T20:47:11.554Z,52.89
2023-06-21T20:52:16.497Z,53.28
2023-06-21T20:57:18.342Z,54.12
2023-06-21T21:02:24.219Z,54.76
2023-06-21T21:07:25.702Z,56.18
2023-06-21T21:12:43.585Z,56.59
2023-06-21T21:18:21.457Z,58.50
2023-06-21T21:23:27.552Z,59.83
2023-06-21T21:28:37.618Z,59.55
2023-06-21T21:33:41.573Z,61.04
2023-06-21T21:38:49.196Z,59.58
2023-06-21T21:44:03.473Z,60.65
2023-06-21T21:49:06.134Z,61.44
2023-06-21T21:54:10.561Z,62.69
2023-06-21T21:59:23.941Z,62.87
2023-06-21T22:04:38.834Z,63.85
2023-06-21T22:09:40.698Z,63.17
2023-06-21T22:14:42.407Z,61.11
2023-06-21T22:19:44.184Z,60.90
2023-06-21T22:24:46.145Z,61.69
2023-06-21T22:29:48.102Z,61.80
2023-06-21T22:34:52.857Z,62.24
2023-06-21T22:40:01.956Z,63.16
2023-06-21T22:45:22.230Z,62.32
2023-06-21T22:50:24.229Z,62.76
2023-06-21T22:55:26.133Z,62.53
2023-06-21T23:00:31.728Z,61.86
2023-06-21T23:10:59.246Z,62.41
2023-06-21T23:16:11.377Z,62.42
2023-06-21T23:21:13.952Z,61.65
2023-06-21T23:26:15.891Z,62.40
2023-06-21T23:31:22.524Z,62.33
2023-06-21T23:36:33.619Z,61.87
2023-06-21T23:41:35.757Z,63.00
2023-06-21T23:52:04.619Z,63.82
2023-06-21T23:57:08.627Z,63.11
